Station: Middle Point

  Atmospheric Gas Attenuation - ITU Rec 676-11   --------------- db/100km ---------------
Date Time Temp RH % AH g/m3 Dew Point Wind Direction Speed kph Gust kph Barometer mB Rainfall Since 9am 24GHz 47GHz 76GHz 122GHz 134GHz 241GHz
07 07:00 17.6 98 14.7 17.3 9 11 1012.3 0 32.4 35.2 63.8 168.4 178.5 618.6
07 06:50 17.8 99 15.02 17.6 9 11 1013.1 0 33.1 35.7 65.2 172.1 183.0 634.4
07 06:40 17.6 100 15 17.6 11 13 1013.1 0 33.1 35.8 65.2 172.3 183.2 635.0
07 06:30 17.3 100 14.73 17.3 9 13 1012 0 32.5 35.4 64.1 169.4 179.6 622.5
07 06:20 17.2 99 14.5 17 7 9 1013.1 0 32.0 35.0 63.2 166.9 176.5 611.6
07 06:10 16.4 97 13.54 16 7 7 1013.1 0 30.0 33.6 59.4 156.8 163.8 567.1
07 06:00 15.9 98 13.27 15.6 6 9 1011.6 0 29.5 33.2 58.5 154.3 160.6 556.0
07 05:48 16.1 97 13.3 15.7 4 4 1013.1 0 29.5 33.2 58.5 154.5 160.8 556.8
07 05:40 16 97 13.22 15.5 0 0 1013.1 0 29.4 33.1 58.3 153.7 159.8 553.3
07 05:30 16.6 98 13.84 16.3 4 6 1011.3 0 30.7 34.0 60.5 159.8 167.6 580.6
07 05:20 16.9 99 14.24 16.7 6 6 1013.1 0 31.5 34.7 62.3 164.3 173.2 600.2
07 05:10 16.7 99 14.07 16.5 7 7 1013.1 0 31.2 34.4 61.6 162.7 171.1 592.7
07 04:50 16.1 97 13.3 15.6 0 0 1013.1 0 29.5 33.2 58.5 154.5 160.8 556.8
07 04:40 16 97 13.22 15.5 0 0 1013.1 0 29.4 33.1 58.3 153.7 159.8 553.3
07 04:30 16.6 97 13.7 16.1 0 0 1010.6 0 30.4 33.7 59.9 158.0 165.4 572.9
07 04:20 17.1 97 14.12 16.7 0 0 1013.1 0 31.2 34.4 61.5 162.4 170.9 592.2
07 04:10 17.5 99 14.76 17.3 0 0 1013.1 0 32.6 35.4 64.2 169.5 179.8 623.0
07 04:00 17.5 98 14.61 17.2 0 0 1010.6 0 32.3 35.0 63.3 167.3 177.1 613.9
07 03:50 17.4 97 14.37 17 0 0 1013.1 0 31.7 34.7 62.4 164.9 174.0 603.1
07 03:40 17.7 97 14.63 17.3 0 0 1013.1 0 32.3 35.1 63.4 167.4 177.3 614.4
07 03:30 17.6 97 14.55 17.1 0 0 1010.7 0 32.1 34.8 63.0 166.3 176.0 609.9
07 03:20 17.2 95 13.91 16.4 0 0 1013.1 0 30.8 33.9 60.5 159.6 167.5 580.4
07 03:10 16.9 94 13.52 15.9 0 0 1013.1 0 30.0 33.3 58.9 155.5 162.4 562.3
07 03:00 18.2 97 15.08 17.7 4 4 1010.9 0 33.2 35.6 65.0 171.6 182.7 633.3
07 02:50 17.9 97 14.81 17.4 4 4 1013.1 0 32.7 35.3 64.1 169.2 179.6 622.4
07 02:40 18.3 97 15.17 17.8 6 6 1013.1 0 33.4 35.8 65.4 172.8 184.1 638.2
07 02:30 17.8 95 14.42 17 7 7 1010.9 0 31.8 34.5 62.2 164.3 173.6 601.6
07 02:20 18 96 14.74 17.3 7 7 1013.1 0 32.5 35.1 63.7 168.1 178.3 617.8
07 02:10 18.2 96 14.92 17.5 6 6 1013.1 0 32.9 35.4 64.3 169.9 180.5 625.7
07 02:00 18.2 96 14.92 17.6 6 7 1011 0 32.9 35.3 64.2 169.6 180.2 624.8
07 01:50 17.7 93 14.03 16.5 4 4 1013.1 0 31.0 33.9 60.6 160.1 168.2 582.9
07 01:40 18 91 13.98 16.6 4 4 1013.1 0 30.9 33.7 60.2 158.8 166.8 578.0
07 01:30 18.1 92 14.21 16.8 4 6 1011 0 31.4 34.0 61.0 161.1 169.8 588.3
07 01:20 18.3 90 14.07 16.6 4 4 1013.1 0 31.0 33.8 60.3 159.3 167.5 580.4
07 01:10 19.4 94 15.68 18.4 4 6 1013.1 0 34.4 36.3 66.9 176.6 189.2 656.1
07 01:00 19.2 94 15.5 18.2 2 4 1011.3 0 34.0 36.0 66.1 174.6 186.7 647.3
07 00:50 18.8 93 14.98 17.6 4 4 1013.1 0 32.9 35.3 64.1 169.3 180.0 624.0
07 00:40 19 90 14.67 17.3 7 7 1013.1 0 32.3 34.6 62.5 165.1 174.8 606.1
07 00:30 19.1 94 15.41 18.1 7 9 1011.5 0 33.9 35.9 65.8 173.7 185.6 643.5
07 00:20 18.6 93 14.8 17.4 7 7 1013.1 0 32.6 35.0 63.4 167.5 177.7 616.1
07 00:10 18.3 87 13.6 16.2 6 6 1013.1 0 30.0 32.9 58.2 153.6 160.6 556.2
07 00:00 19.1 91 14.92 17.6 7 7 1011.7 0 32.8 35.0 63.5 167.7 178.2 617.7
06 23:50 19.1 89 14.59 17.2 7 7 1013.1 0 32.1 34.4 62.1 163.9 173.4 601.1
06 23:40 19.2 88 14.51 17.1 6 7 1013.1 0 31.9 34.2 61.6 162.7 172.0 596.2
06 23:30 19.3 85 14.1 16.7 4 6 1011.9 0 31.0 33.4 59.6 157.4 165.6 573.8
06 23:20 20.2 84 14.69 17.4 4 4 1013.1 0 32.2 34.1 61.6 162.7 172.4 597.6
06 23:10 20.9 80 14.57 17.3 6 7 1013.1 0 31.9 33.7 60.5 159.8 169.0 586.1
06 23:00 21.5 80 15.08 17.9 7 9 1011.9 0 32.9 34.3 62.3 164.5 174.9 606.8
06 22:50 22.1 79 15.42 18.4 6 7 1013.1 0 33.6 34.7 63.4 167.4 178.7 619.8
06 22:40 22.2 80 15.71 18.7 6 7 1013.1 0 34.2 35.2 64.6 170.6 182.7 633.9
06 22:30 21.7 82 15.64 18.5 2 7 1011.9 0 34.1 35.2 64.6 170.7 182.7 633.9
06 22:20 22 80 15.53 18.4 2 2 1013.1 0 33.9 34.9 63.9 168.9 180.5 626.3
06 22:10 21.7 78 14.88 17.7 4 4 1013.1 0 32.5 33.9 61.3 161.8 171.7 595.6
06 22:00 23 75 15.41 18.3 4 4 1011.7 0 33.5 34.3 62.5 165.1 176.2 611.5
06 21:50 23.4 75 15.77 18.7 4 4 1013.1 0 34.2 34.8 63.8 168.7 180.7 627.0
06 21:40 23.3 74 15.47 18.4 6 6 1013.1 0 33.6 34.3 62.6 165.4 176.6 612.7
06 21:30 23.6 73 15.53 18.5 7 11 1011.4 0 33.7 34.2 62.5 165.2 176.5 612.6
06 21:20 24.2 72 15.84 18.8 9 11 1013.1 0 34.3 34.6 63.5 167.8 179.8 624.0
06 21:10 24.4 71 15.8 18.8 11 13 1013.1 0 34.2 34.4 63.2 166.9 178.7 620.4
06 21:00 24.9 69 15.79 18.8 13 19 1011 0 34.2 34.1 62.6 165.4 177.2 615.0
06 20:50 25.2 69 16.06 19.1 17 22 1013.1 0 34.7 34.6 63.6 168.1 180.6 626.9
06 20:40 25.1 67 15.51 18.7 11 13 1013.1 0 33.6 33.7 61.3 162.0 173.0 600.5
06 20:30 25.5 67 15.86 18.9 15 22 1010.6 0 34.3 34.0 62.4 164.8 176.7 613.5
06 20:20 25.6 65 15.47 18.7 15 17 1013.1 0 33.4 33.4 60.8 160.5 171.3 594.7
06 20:10 25.8 65 15.65 18.9 15 17 1013.1 0 33.8 33.6 61.4 162.2 173.4 601.9
06 20:00 25.4 68 16.01 19.1 13 19 1010.2 0 34.6 34.3 63.1 166.7 179.0 621.5
06 19:50 25.4 69 16.24 19.3 13 15 1013.1 0 35.1 34.8 64.3 169.8 182.7 634.2
06 19:40 25.5 67 15.86 19.1 15 15 1013.1 0 34.3 34.1 62.5 165.2 177.0 614.6
06 19:30 25.9 67 16.22 19.3 13 15 1009.9 0 35.0 34.4 63.6 168.0 180.8 627.6
06 19:20 26.3 66 16.34 19.4 11 13 1013.1 0 35.2 34.6 63.9 169.0 181.9 631.7
06 19:10 26.6 64 16.11 19.2 13 17 1013.1 0 34.7 34.1 62.7 165.7 178.0 618.0
06 19:00 26.5 63 15.77 18.9 13 19 1009.6 0 34.0 33.4 61.1 161.6 173.0 600.8
06 18:50 27.1 61 15.79 18.9 13 15 1013.1 0 34.0 33.4 61.0 161.0 172.4 598.6
06 18:40 27.5 58 15.35 18.7 13 17 1013.1 0 33.0 32.5 58.8 155.3 165.5 574.7
06 18:30 28.1 57 15.59 18.8 17 20 1009.4 0 33.5 32.5 59.1 156.3 167.0 580.0
06 18:20 28.5 55 15.37 18.8 19 20 1013.1 0 33.0 32.1 58.1 153.6 163.6 568.3
06 18:10 29 54 15.51 19 20 22 1013.1 0 33.2 32.2 58.3 154.1 164.4 571.2
06 18:00 29.3 53 15.48 19 17 24 1009.2 0 33.2 31.9 57.8 152.7 162.9 566.0
06 17:50 29.4 54 15.85 19.1 20 22 1013.1 0 33.9 32.6 59.4 157.0 168.1 584.0
06 17:40 29.9 52 15.69 19.2 22 28 1013.1 0 33.5 32.1 58.4 154.3 164.9 572.9
06 17:30 30.1 50 15.25 18.8 22 30 1009 0 32.6 31.2 56.3 148.7 158.3 549.7
06 17:20 30.9 49 15.6 19.2 19 20 1013.1 0 33.3 31.6 57.3 151.4 161.6 561.6
06 17:10 30.9 48 15.28 18.9 13 17 1013.1 0 32.6 31.1 56.0 148.0 157.5 547.2
06 17:00 30.9 48 15.28 18.6 20 30 1008.7 0 32.6 31.0 55.8 147.5 157.0 545.4
06 16:50 31.7 47 15.62 19 24 28 1013.1 0 33.2 31.4 56.8 150.1 160.2 556.9
06 16:40 31.6 47 15.54 18.9 17 20 1013.1 0 33.1 31.3 56.6 149.5 159.4 554.0
06 16:30 31.5 46 15.12 18.5 20 28 1008.5 0 32.2 30.5 54.8 144.7 153.7 534.1
06 16:20 31.9 44 14.78 18.4 22 26 1013.1 0 31.5 30.0 53.4 141.1 149.2 518.3
06 16:10 32 43 14.52 18.2 19 22 1013.1 0 30.9 29.6 52.4 138.3 145.8 506.4
06 16:00 32.3 42 14.41 18.1 20 28 1008.3 0 30.7 29.1 51.5 136.1 143.3 497.9
06 15:50 32.4 42 14.49 18.2 11 11 1013.1 0 30.9 29.4 52.0 137.3 144.7 502.5
06 15:40 30.9 45 14.33 17.9 17 19 1013.1 0 30.6 29.6 52.4 138.2 145.4 505.1
06 15:30 31.9 43 14.44 17.8 20 28 1008.4 0 30.8 29.3 51.9 137.1 144.5 501.7
06 15:20 33.5 39 14.26 18 28 33 1013.1 0 30.3 28.7 50.4 133.1 139.9 485.9
06 15:10 32.7 42 14.72 18.1 19 22 1013.1 0 31.3 29.6 52.7 139.1 146.9 510.5
06 15:00 32.3 41 14.07 17.7 15 24 1008.7 0 30.0 28.6 50.3 132.7 139.2 483.5
06 14:50 32.6 42 14.64 18.3 22 26 1013.1 0 31.1 29.5 52.4 138.4 146.1 507.7
06 14:40 32 43 14.52 18.2 11 19 1013.1 0 30.9 29.6 52.4 138.3 145.8 506.4
06 14:30 32.7 43 15.07 18.5 17 37 1009.1 0 32.0 30.0 53.8 142.1 150.8 524.2
06 14:20 32.1 41 13.92 17.5 11 15 1013.1 0 29.7 28.6 50.0 132.1 138.2 480.0

Last Refresh: 07-Aug-2020 07:11:49

Most of the information presented on this site is sourced from the Bureau of Meteorology.  Copyright in all material sourced from the Bureau of Meteorology resides with the Commonwealth of Australia.